首页
METAR-TAF:

METAR-TAF

机场 :

布爾加斯, 保加利亚

纬度: 42-29N, 经度: 027-29E, 海拔: 16米

当前天气观测

该预报发布于39分钟前的08:00 UTC
风速15节,风向东北
温度 6°C
湿度 56%
气压 1020 hPa
能见度10公里或以上
阴天层高于3900英尺

METAR: LBBG 010800Z 05015KT 9999 OVC039 06/M02 Q1020 NOSIG

时间: 11:39 (08:39 UTC)

预报

该预报发布于3小时和39分钟前的05:00 UTC
预报有效从01日的 06点(UTC)到 02日的 06点(UTC)
风速12节,风向东北
能见度10公里或以上
散云层高于2500英尺
多云层高于4000英尺
短暂存在
从 01日的 06点(UTC)到 01日的 15点(UTC)
风速16节,风向北转东北,有时为26节阵风
几率 40%
从 01日的 06点(UTC)到 01日的 10点(UTC)
能見度: 5000

TAF: LBBG 010500Z 0106/0206 04012KT 9999 SCT025 BKN040 TEMPO 0106/0115 03016G26KT PROB40 0106/0110 5000 RA

超过4000个机场的气象观测和天气预报(METAR&TAF报告)。

可查询的气象台以黄色和红色小点在地图上表示。

将鼠标移到小点上方,可查看气象台名称。

然后点击查看天气观测和预报。

如需切换地图:点击带黑十字的绿色按钮放大地图;点击带横线的绿色按钮缩小地图;或者点击绿色箭头查看邻近地区的地图。


METAR-TAF: